sensor_id;sensor_type;location;lat;lon;timestamp;temperature;humidity
5210;DHT22;2624;48.048;11.706;2023-08-24T00:01:27;25.00;99.90
5210;DHT22;2624;48.048;11.706;2023-08-24T00:06:30;24.60;99.90
5210;DHT22;2624;48.048;11.706;2023-08-24T00:11:32;24.70;99.90
5210;DHT22;2624;48.048;11.706;2023-08-24T00:16:34;25.00;99.90
5210;DHT22;2624;48.048;11.706;2023-08-24T00:21:37;24.90;99.90
5210;DHT22;2624;48.048;11.706;2023-08-24T00:26:39;24.50;99.90
5210;DHT22;2624;48.048;11.706;2023-08-24T00:31:41;24.50;99.90
5210;DHT22;2624;48.048;11.706;2023-08-24T00:36:44;24.80;99.90
5210;DHT22;2624;48.048;11.706;2023-08-24T00:41:46;24.20;99.90
5210;DHT22;2624;48.048;11.706;2023-08-24T00:46:48;24.40;99.90
5210;DHT22;2624;48.048;11.706;2023-08-24T00:51:51;24.30;99.90
5210;DHT22;2624;48.048;11.706;2023-08-24T00:56:53;24.00;99.90
5210;DHT22;2624;48.048;11.706;2023-08-24T01:01:56;24.10;99.90
5210;DHT22;2624;48.048;11.706;2023-08-24T01:06:59;23.90;99.90
5210;DHT22;2624;48.048;11.706;2023-08-24T01:12:08;24.00;99.90
5210;DHT22;2624;48.048;11.706;2023-08-24T01:17:15;24.50;99.90
5210;DHT22;2624;48.048;11.706;2023-08-24T01:22:32;24.70;99.90
5210;DHT22;2624;48.048;11.706;2023-08-24T01:27:36;24.70;99.90
5210;DHT22;2624;48.048;11.706;2023-08-24T01:32:39;24.70;99.90
5210;DHT22;2624;48.048;11.706;2023-08-24T01:37:42;24.60;99.90
5210;DHT22;2624;48.048;11.706;2023-08-24T01:42:48;24.50;99.90
5210;DHT22;2624;48.048;11.706;2023-08-24T01:47:55;24.60;99.90
5210;DHT22;2624;48.048;11.706;2023-08-24T01:52:57;24.50;99.90
5210;DHT22;2624;48.048;11.706;2023-08-24T01:58:01;24.50;99.90
5210;DHT22;2624;48.048;11.706;2023-08-24T02:03:03;24.50;99.90
5210;DHT22;2624;48.048;11.706;2023-08-24T02:08:05;24.40;99.90
5210;DHT22;2624;48.048;11.706;2023-08-24T02:13:08;24.40;99.90
5210;DHT22;2624;48.048;11.706;2023-08-24T02:18:10;24.10;99.90
5210;DHT22;2624;48.048;11.706;2023-08-24T02:23:12;23.60;99.90
5210;DHT22;2624;48.048;11.706;2023-08-24T02:28:15;23.40;99.90
5210;DHT22;2624;48.048;11.706;2023-08-24T02:33:17;23.70;99.90
5210;DHT22;2624;48.048;11.706;2023-08-24T02:38:18;23.80;99.90
5210;DHT22;2624;48.048;11.706;2023-08-24T02:43:22;23.30;99.90
5210;DHT22;2624;48.048;11.706;2023-08-24T02:48:23;23.50;99.90
5210;DHT22;2624;48.048;11.706;2023-08-24T02:53:26;23.50;99.90
5210;DHT22;2624;48.048;11.706;2023-08-24T02:58:31;23.60;99.90
5210;DHT22;2624;48.048;11.706;2023-08-24T03:03:33;23.80;99.90
5210;DHT22;2624;48.048;11.706;2023-08-24T03:08:35;23.70;99.90
5210;DHT22;2624;48.048;11.706;2023-08-24T03:13:38;23.00;99.90
5210;DHT22;2624;48.048;11.706;2023-08-24T03:18:40;22.80;99.90
5210;DHT22;2624;48.048;11.706;2023-08-24T03:23:42;22.70;99.90
5210;DHT22;2624;48.048;11.706;2023-08-24T03:28:45;22.60;99.90
5210;DHT22;2624;48.048;11.706;2023-08-24T03:33:47;22.60;99.90
5210;DHT22;2624;48.048;11.706;2023-08-24T03:38:49;22.70;99.90
5210;DHT22;2624;48.048;11.706;2023-08-24T03:43:52;23.00;99.90
5210;DHT22;2624;48.048;11.706;2023-08-24T03:48:53;23.40;99.90
5210;DHT22;2624;48.048;11.706;2023-08-24T03:53:55;23.10;99.90
5210;DHT22;2624;48.048;11.706;2023-08-24T03:58:58;22.60;99.90
5210;DHT22;2624;48.048;11.706;2023-08-24T04:04:00;22.40;99.90
5210;DHT22;2624;48.048;11.706;2023-08-24T04:09:02;22.70;99.90
5210;DHT22;2624;48.048;11.706;2023-08-24T04:14:05;22.60;99.90
5210;DHT22;2624;48.048;11.706;2023-08-24T04:19:07;22.80;99.90
5210;DHT22;2624;48.048;11.706;2023-08-24T04:24:09;22.90;99.90
5210;DHT22;2624;48.048;11.706;2023-08-24T04:29:12;23.00;99.90
5210;DHT22;2624;48.048;11.706;2023-08-24T04:34:13;23.10;99.90
5210;DHT22;2624;48.048;11.706;2023-08-24T04:39:15;23.20;99.90
5210;DHT22;2624;48.048;11.706;2023-08-24T04:44:20;23.20;99.90
5210;DHT22;2624;48.048;11.706;2023-08-24T04:49:22;23.30;99.90
5210;DHT22;2624;48.048;11.706;2023-08-24T04:54:24;23.30;99.90
5210;DHT22;2624;48.048;11.706;2023-08-24T04:59:27;23.30;99.90
5210;DHT22;2624;48.048;11.706;2023-08-24T05:04:29;23.20;99.90
5210;DHT22;2624;48.048;11.706;2023-08-24T05:09:30;22.50;99.90
5210;DHT22;2624;48.048;11.706;2023-08-24T05:14:34;22.30;99.90
5210;DHT22;2624;48.048;11.706;2023-08-24T05:19:35;22.80;99.90
5210;DHT22;2624;48.048;11.706;2023-08-24T05:24:37;23.10;99.90
5210;DHT22;2624;48.048;11.706;2023-08-24T05:29:40;23.10;99.90
5210;DHT22;2624;48.048;11.706;2023-08-24T05:34:42;23.00;99.90
5210;DHT22;2624;48.048;11.706;2023-08-24T05:39:44;22.90;99.90
5210;DHT22;2624;48.048;11.706;2023-08-24T05:44:47;22.70;99.90
5210;DHT22;2624;48.048;11.706;2023-08-24T05:49:49;22.80;99.90
5210;DHT22;2624;48.048;11.706;2023-08-24T05:54:50;22.50;99.90
5210;DHT22;2624;48.048;11.706;2023-08-24T05:59:54;22.40;99.90
5210;DHT22;2624;48.048;11.706;2023-08-24T06:04:55;22.30;99.90
5210;DHT22;2624;48.048;11.706;2023-08-24T06:09:57;22.10;99.90
5210;DHT22;2624;48.048;11.706;2023-08-24T06:15:00;22.40;99.90
5210;DHT22;2624;48.048;11.706;2023-08-24T06:20:06;22.30;99.90
5210;DHT22;2624;48.048;11.706;2023-08-24T06:25:10;22.10;99.90
5210;DHT22;2624;48.048;11.706;2023-08-24T06:30:13;22.10;99.90
5210;DHT22;2624;48.048;11.706;2023-08-24T06:35:16;22.00;99.90
5210;DHT22;2624;48.048;11.706;2023-08-24T06:40:19;22.30;99.90
5210;DHT22;2624;48.048;11.706;2023-08-24T06:45:22;22.40;99.90
5210;DHT22;2624;48.048;11.706;2023-08-24T06:50:24;22.50;99.90
5210;DHT22;2624;48.048;11.706;2023-08-24T06:55:26;22.60;99.90
5210;DHT22;2624;48.048;11.706;2023-08-24T07:00:30;22.80;99.90
5210;DHT22;2624;48.048;11.706;2023-08-24T07:05:32;22.90;99.90
5210;DHT22;2624;48.048;11.706;2023-08-24T07:10:34;23.10;99.90
5210;DHT22;2624;48.048;11.706;2023-08-24T07:15:37;23.20;99.90
5210;DHT22;2624;48.048;11.706;2023-08-24T07:20:39;23.40;99.90
5210;DHT22;2624;48.048;11.706;2023-08-24T07:25:41;23.60;99.90
5210;DHT22;2624;48.048;11.706;2023-08-24T07:30:44;23.80;99.90
5210;DHT22;2624;48.048;11.706;2023-08-24T07:35:46;24.00;99.90
5210;DHT22;2624;48.048;11.706;2023-08-24T07:40:48;24.30;99.90
5210;DHT22;2624;48.048;11.706;2023-08-24T07:45:51;24.40;99.90
5210;DHT22;2624;48.048;11.706;2023-08-24T07:50:53;24.50;99.90
5210;DHT22;2624;48.048;11.706;2023-08-24T07:55:55;24.50;99.90
5210;DHT22;2624;48.048;11.706;2023-08-24T08:00:59;25.10;99.90
5210;DHT22;2624;48.048;11.706;2023-08-24T08:06:01;25.20;99.90
5210;DHT22;2624;48.048;11.706;2023-08-24T08:11:03;25.30;99.90
5210;DHT22;2624;48.048;11.706;2023-08-24T08:16:07;25.40;99.90
5210;DHT22;2624;48.048;11.706;2023-08-24T08:21:09;25.60;99.90
5210;DHT22;2624;48.048;11.706;2023-08-24T08:26:12;26.00;99.90
5210;DHT22;2624;48.048;11.706;2023-08-24T08:31:16;26.00;99.90
5210;DHT22;2624;48.048;11.706;2023-08-24T08:36:18;26.40;99.90
5210;DHT22;2624;48.048;11.706;2023-08-24T08:41:22;26.20;99.90
5210;DHT22;2624;48.048;11.706;2023-08-24T08:46:25;26.60;99.90
5210;DHT22;2624;48.048;11.706;2023-08-24T08:51:29;26.80;99.90
5210;DHT22;2624;48.048;11.706;2023-08-24T08:56:31;26.90;99.90
5210;DHT22;2624;48.048;11.706;2023-08-24T09:01:35;27.30;99.90
5210;DHT22;2624;48.048;11.706;2023-08-24T09:06:38;26.80;99.90
5210;DHT22;2624;48.048;11.706;2023-08-24T09:11:40;27.20;99.90
5210;DHT22;2624;48.048;11.706;2023-08-24T09:16:44;26.90;99.90
5210;DHT22;2624;48.048;11.706;2023-08-24T09:21:45;26.50;99.90
5210;DHT22;2624;48.048;11.706;2023-08-24T09:26:47;26.90;99.90
5210;DHT22;2624;48.048;11.706;2023-08-24T09:31:51;27.60;99.90
5210;DHT22;2624;48.048;11.706;2023-08-24T09:36:53;27.20;99.90
5210;DHT22;2624;48.048;11.706;2023-08-24T09:41:57;27.30;99.90
5210;DHT22;2624;48.048;11.706;2023-08-24T09:47:10;27.90;99.90
5210;DHT22;2624;48.048;11.706;2023-08-24T09:52:12;28.00;99.90
5210;DHT22;2624;48.048;11.706;2023-08-24T09:57:15;28.60;99.90
5210;DHT22;2624;48.048;11.706;2023-08-24T10:02:21;28.90;99.90
5210;DHT22;2624;48.048;11.706;2023-08-24T10:07:25;29.20;99.90
5210;DHT22;2624;48.048;11.706;2023-08-24T10:12:28;28.80;99.90
5210;DHT22;2624;48.048;11.706;2023-08-24T10:17:34;29.40;99.90
5210;DHT22;2624;48.048;11.706;2023-08-24T10:22:37;29.80;99.90
5210;DHT22;2624;48.048;11.706;2023-08-24T10:27:40;30.10;99.90
5210;DHT22;2624;48.048;11.706;2023-08-24T10:32:45;29.90;99.90
5210;DHT22;2624;48.048;11.706;2023-08-24T10:37:52;29.90;99.90
5210;DHT22;2624;48.048;11.706;2023-08-24T10:42:54;29.90;99.90
5210;DHT22;2624;48.048;11.706;2023-08-24T10:47:58;30.30;99.10
5210;DHT22;2624;48.048;11.706;2023-08-24T10:52:59;30.10;99.90
5210;DHT22;2624;48.048;11.706;2023-08-24T10:58:02;30.10;98.60
5210;DHT22;2624;48.048;11.706;2023-08-24T11:03:05;30.60;99.00
5210;DHT22;2624;48.048;11.706;2023-08-24T11:08:07;30.90;98.20
5210;DHT22;2624;48.048;11.706;2023-08-24T11:13:13;30.80;99.30
5210;DHT22;2624;48.048;11.706;2023-08-24T11:18:24;30.90;98.80
5210;DHT22;2624;48.048;11.706;2023-08-24T11:23:27;30.90;99.40
5210;DHT22;2624;48.048;11.706;2023-08-24T11:28:30;31.00;99.20
5210;DHT22;2624;48.048;11.706;2023-08-24T11:33:34;31.20;98.70
5210;DHT22;2624;48.048;11.706;2023-08-24T11:38:37;31.10;98.80
5210;DHT22;2624;48.048;11.706;2023-08-24T11:43:39;31.20;98.40
5210;DHT22;2624;48.048;11.706;2023-08-24T11:48:43;31.30;98.80
5210;DHT22;2624;48.048;11.706;2023-08-24T11:53:46;31.30;98.90
5210;DHT22;2624;48.048;11.706;2023-08-24T11:58:49;31.80;98.10
5210;DHT22;2624;48.048;11.706;2023-08-24T12:03:53;32.20;93.40
5210;DHT22;2624;48.048;11.706;2023-08-24T12:08:55;32.30;91.90
5210;DHT22;2624;48.048;11.706;2023-08-24T12:13:57;32.10;94.20
5210;DHT22;2624;48.048;11.706;2023-08-24T12:19:01;32.30;94.00
5210;DHT22;2624;48.048;11.706;2023-08-24T12:24:05;32.40;93.50
5210;DHT22;2624;48.048;11.706;2023-08-24T12:29:09;32.00;95.60
5210;DHT22;2624;48.048;11.706;2023-08-24T12:34:15;32.30;95.00
5210;DHT22;2624;48.048;11.706;2023-08-24T12:39:17;32.30;91.40
5210;DHT22;2624;48.048;11.706;2023-08-24T12:44:19;32.60;92.30
5210;DHT22;2624;48.048;11.706;2023-08-24T12:49:23;32.30;93.30
5210;DHT22;2624;48.048;11.706;2023-08-24T12:54:25;32.80;90.90
5210;DHT22;2624;48.048;11.706;2023-08-24T12:59:26;32.70;87.90
5210;DHT22;2624;48.048;11.706;2023-08-24T13:04:29;32.30;91.90
5210;DHT22;2624;48.048;11.706;2023-08-24T13:09:32;32.30;93.00
5210;DHT22;2624;48.048;11.706;2023-08-24T13:14:34;32.50;93.00
5210;DHT22;2624;48.048;11.706;2023-08-24T13:19:37;32.80;92.00
5210;DHT22;2624;48.048;11.706;2023-08-24T13:24:39;32.30;94.60
5210;DHT22;2624;48.048;11.706;2023-08-24T13:29:43;32.50;93.60
5210;DHT22;2624;48.048;11.706;2023-08-24T13:34:46;32.60;93.60
5210;DHT22;2624;48.048;11.706;2023-08-24T13:39:48;32.80;92.30
5210;DHT22;2624;48.048;11.706;2023-08-24T13:44:50;32.80;91.90
5210;DHT22;2624;48.048;11.706;2023-08-24T13:49:53;32.90;91.20
5210;DHT22;2624;48.048;11.706;2023-08-24T13:54:55;32.70;93.20
5210;DHT22;2624;48.048;11.706;2023-08-24T13:59:56;32.80;93.10
5210;DHT22;2624;48.048;11.706;2023-08-24T14:05:00;33.00;92.40
5210;DHT22;2624;48.048;11.706;2023-08-24T14:10:02;33.10;89.80
5210;DHT22;2624;48.048;11.706;2023-08-24T14:15:04;32.90;92.40
5210;DHT22;2624;48.048;11.706;2023-08-24T14:20:09;32.80;91.70
5210;DHT22;2624;48.048;11.706;2023-08-24T14:25:13;32.50;93.00
5210;DHT22;2624;48.048;11.706;2023-08-24T14:30:15;32.60;92.50
5210;DHT22;2624;48.048;11.706;2023-08-24T14:35:18;32.70;92.70
5210;DHT22;2624;48.048;11.706;2023-08-24T14:40:20;32.40;91.90
5210;DHT22;2624;48.048;11.706;2023-08-24T14:45:21;32.60;89.20
5210;DHT22;2624;48.048;11.706;2023-08-24T14:50:24;32.60;88.30
5210;DHT22;2624;48.048;11.706;2023-08-24T14:55:26;32.50;89.50
5210;DHT22;2624;48.048;11.706;2023-08-24T15:00:28;32.50;90.40
5210;DHT22;2624;48.048;11.706;2023-08-24T15:05:36;32.40;92.60
5210;DHT22;2624;48.048;11.706;2023-08-24T15:10:38;32.40;92.00
5210;DHT22;2624;48.048;11.706;2023-08-24T15:15:40;32.20;92.30
5210;DHT22;2624;48.048;11.706;2023-08-24T15:20:43;32.20;92.10
5210;DHT22;2624;48.048;11.706;2023-08-24T15:25:45;32.10;93.00
5210;DHT22;2624;48.048;11.706;2023-08-24T15:30:47;32.00;92.70
5210;DHT22;2624;48.048;11.706;2023-08-24T15:35:50;32.00;92.70
5210;DHT22;2624;48.048;11.706;2023-08-24T15:40:53;32.00;92.30
5210;DHT22;2624;48.048;11.706;2023-08-24T15:45:55;32.00;91.10
5210;DHT22;2624;48.048;11.706;2023-08-24T15:50:58;32.00;91.20
5210;DHT22;2624;48.048;11.706;2023-08-24T15:56:00;32.00;92.60
5210;DHT22;2624;48.048;11.706;2023-08-24T16:01:02;32.00;92.50
5210;DHT22;2624;48.048;11.706;2023-08-24T16:06:06;31.90;90.60
5210;DHT22;2624;48.048;11.706;2023-08-24T16:11:11;31.80;92.40
5210;DHT22;2624;48.048;11.706;2023-08-24T16:16:13;31.70;91.60
5210;DHT22;2624;48.048;11.706;2023-08-24T16:21:16;31.70;91.80
5210;DHT22;2624;48.048;11.706;2023-08-24T16:26:18;31.60;92.20
5210;DHT22;2624;48.048;11.706;2023-08-24T16:31:20;31.60;93.30
5210;DHT22;2624;48.048;11.706;2023-08-24T16:36:23;31.50;93.60
5210;DHT22;2624;48.048;11.706;2023-08-24T16:41:24;31.40;94.20
5210;DHT22;2624;48.048;11.706;2023-08-24T16:46:26;31.30;93.90
5210;DHT22;2624;48.048;11.706;2023-08-24T16:51:29;31.20;94.20
5210;DHT22;2624;48.048;11.706;2023-08-24T16:56:31;31.00;94.00
5210;DHT22;2624;48.048;11.706;2023-08-24T17:01:33;30.90;94.20
5210;DHT22;2624;48.048;11.706;2023-08-24T17:06:36;30.80;94.70
5210;DHT22;2624;48.048;11.706;2023-08-24T17:11:38;30.70;95.10
5210;DHT22;2624;48.048;11.706;2023-08-24T17:16:40;30.70;95.50
5210;DHT22;2624;48.048;11.706;2023-08-24T17:21:43;30.70;95.60
5210;DHT22;2624;48.048;11.706;2023-08-24T17:26:45;30.60;95.60
5210;DHT22;2624;48.048;11.706;2023-08-24T17:31:47;30.60;95.80
5210;DHT22;2624;48.048;11.706;2023-08-24T17:36:50;30.50;96.10
5210;DHT22;2624;48.048;11.706;2023-08-24T17:41:51;30.60;96.60
5210;DHT22;2624;48.048;11.706;2023-08-24T17:46:53;30.50;96.70
5210;DHT22;2624;48.048;11.706;2023-08-24T17:51:56;30.40;97.10
5210;DHT22;2624;48.048;11.706;2023-08-24T17:57:00;30.40;97.20
5210;DHT22;2624;48.048;11.706;2023-08-24T18:02:02;30.40;97.00
5210;DHT22;2624;48.048;11.706;2023-08-24T18:07:05;30.50;97.10
5210;DHT22;2624;48.048;11.706;2023-08-24T18:12:07;30.40;97.20
5210;DHT22;2624;48.048;11.706;2023-08-24T18:17:09;30.30;97.50
5210;DHT22;2624;48.048;11.706;2023-08-24T18:22:12;30.20;97.60
5210;DHT22;2624;48.048;11.706;2023-08-24T18:27:14;30.20;97.60
5210;DHT22;2624;48.048;11.706;2023-08-24T18:32:16;30.20;97.70
5210;DHT22;2624;48.048;11.706;2023-08-24T18:37:19;30.10;98.10
5210;DHT22;2624;48.048;11.706;2023-08-24T18:42:21;30.00;99.10
5210;DHT22;2624;48.048;11.706;2023-08-24T18:47:24;29.70;99.20
5210;DHT22;2624;48.048;11.706;2023-08-24T18:52:27;29.80;98.60
5210;DHT22;2624;48.048;11.706;2023-08-24T18:57:29;29.90;98.50
5210;DHT22;2624;48.048;11.706;2023-08-24T19:02:31;29.80;99.50
5210;DHT22;2624;48.048;11.706;2023-08-24T19:07:34;29.50;99.90
5210;DHT22;2624;48.048;11.706;2023-08-24T19:12:36;29.50;99.90
5210;DHT22;2624;48.048;11.706;2023-08-24T19:17:37;29.30;99.90
5210;DHT22;2624;48.048;11.706;2023-08-24T19:22:41;29.00;99.90
5210;DHT22;2624;48.048;11.706;2023-08-24T19:27:43;29.10;99.90
5210;DHT22;2624;48.048;11.706;2023-08-24T19:32:44;29.20;99.90
5210;DHT22;2624;48.048;11.706;2023-08-24T19:37:48;29.40;99.90
5210;DHT22;2624;48.048;11.706;2023-08-24T19:42:49;29.30;99.90
5210;DHT22;2624;48.048;11.706;2023-08-24T19:47:51;29.00;99.90
5210;DHT22;2624;48.048;11.706;2023-08-24T19:52:55;29.20;99.90
5210;DHT22;2624;48.048;11.706;2023-08-24T19:57:56;29.30;99.90
5210;DHT22;2624;48.048;11.706;2023-08-24T20:02:58;28.80;99.90
5210;DHT22;2624;48.048;11.706;2023-08-24T20:08:03;28.60;99.90
5210;DHT22;2624;48.048;11.706;2023-08-24T20:13:05;28.50;99.90
5210;DHT22;2624;48.048;11.706;2023-08-24T20:18:07;28.40;99.90
5210;DHT22;2624;48.048;11.706;2023-08-24T20:23:10;28.40;99.90
5210;DHT22;2624;48.048;11.706;2023-08-24T20:28:12;28.60;99.90
5210;DHT22;2624;48.048;11.706;2023-08-24T20:33:14;28.90;99.90
5210;DHT22;2624;48.048;11.706;2023-08-24T20:38:17;28.90;99.90
5210;DHT22;2624;48.048;11.706;2023-08-24T20:43:19;28.80;99.90
5210;DHT22;2624;48.048;11.706;2023-08-24T20:48:20;28.70;99.90
5210;DHT22;2624;48.048;11.706;2023-08-24T20:53:24;28.60;99.90
5210;DHT22;2624;48.048;11.706;2023-08-24T20:58:26;28.10;99.90
5210;DHT22;2624;48.048;11.706;2023-08-24T21:03:27;28.00;99.90
5210;DHT22;2624;48.048;11.706;2023-08-24T21:08:30;27.90;99.90
5210;DHT22;2624;48.048;11.706;2023-08-24T21:13:32;27.90;99.90
5210;DHT22;2624;48.048;11.706;2023-08-24T21:18:34;27.60;99.90
5210;DHT22;2624;48.048;11.706;2023-08-24T21:23:37;27.40;99.90
5210;DHT22;2624;48.048;11.706;2023-08-24T21:28:39;27.60;99.90
5210;DHT22;2624;48.048;11.706;2023-08-24T21:33:41;27.50;99.90
5210;DHT22;2624;48.048;11.706;2023-08-24T21:38:44;27.50;99.50
5210;DHT22;2624;48.048;11.706;2023-08-24T21:43:46;27.60;99.90
5210;DHT22;2624;48.048;11.706;2023-08-24T21:48:47;27.50;99.90
5210;DHT22;2624;48.048;11.706;2023-08-24T21:53:50;27.30;99.90
5210;DHT22;2624;48.048;11.706;2023-08-24T21:58:52;27.30;99.90
5210;DHT22;2624;48.048;11.706;2023-08-24T22:03:54;27.40;99.90
5210;DHT22;2624;48.048;11.706;2023-08-24T22:08:57;27.20;99.90
5210;DHT22;2624;48.048;11.706;2023-08-24T22:13:59;27.30;99.90
5210;DHT22;2624;48.048;11.706;2023-08-24T22:19:01;27.30;99.90
5210;DHT22;2624;48.048;11.706;2023-08-24T22:24:05;27.40;99.90
5210;DHT22;2624;48.048;11.706;2023-08-24T22:29:06;27.20;99.90
5210;DHT22;2624;48.048;11.706;2023-08-24T22:34:08;27.10;99.90
5210;DHT22;2624;48.048;11.706;2023-08-24T22:39:11;27.00;99.90
5210;DHT22;2624;48.048;11.706;2023-08-24T22:44:13;26.80;99.90
5210;DHT22;2624;48.048;11.706;2023-08-24T22:49:15;26.70;99.90
5210;DHT22;2624;48.048;11.706;2023-08-24T22:54:18;25.70;99.90
5210;DHT22;2624;48.048;11.706;2023-08-24T22:59:20;24.90;99.90
5210;DHT22;2624;48.048;11.706;2023-08-24T23:04:21;24.40;99.90
5210;DHT22;2624;48.048;11.706;2023-08-24T23:09:25;23.90;99.90
5210;DHT22;2624;48.048;11.706;2023-08-24T23:14:28;23.60;99.90
5210;DHT22;2624;48.048;11.706;2023-08-24T23:19:29;23.60;99.90
5210;DHT22;2624;48.048;11.706;2023-08-24T23:24:38;23.50;99.90
5210;DHT22;2624;48.048;11.706;2023-08-24T23:29:39;23.50;99.90
5210;DHT22;2624;48.048;11.706;2023-08-24T23:34:41;23.60;99.90
5210;DHT22;2624;48.048;11.706;2023-08-24T23:39:44;23.20;99.90
5210;DHT22;2624;48.048;11.706;2023-08-24T23:44:46;23.20;99.90
5210;DHT22;2624;48.048;11.706;2023-08-24T23:49:48;22.60;99.90
5210;DHT22;2624;48.048;11.706;2023-08-24T23:54:52;22.40;99.90
5210;DHT22;2624;48.048;11.706;2023-08-24T23:59:53;22.30;99.90
